createdAt,value
2018-04-11T00:01:01.715Z,73.90
2018-04-11T00:03:29.578Z,74.30
2018-04-11T00:05:57.916Z,74.70
2018-04-11T00:08:25.033Z,74.60
2018-04-11T00:10:52.194Z,74.90
2018-04-11T00:13:19.296Z,74.80
2018-04-11T00:15:46.871Z,75.00
2018-04-11T00:18:15.196Z,75.70
2018-04-11T00:20:42.733Z,75.20
2018-04-11T00:23:10.627Z,75.70
2018-04-11T00:25:38.184Z,75.60
2018-04-11T00:28:06.499Z,76.00
2018-04-11T00:30:34.056Z,76.00
2018-04-11T00:33:01.638Z,76.20
2018-04-11T00:35:29.253Z,76.70
2018-04-11T00:37:56.827Z,76.70
2018-04-11T00:40:24.424Z,77.30
2018-04-11T00:42:51.998Z,77.30
2018-04-11T00:45:19.548Z,77.40
2018-04-11T00:47:47.099Z,77.30
2018-04-11T00:50:14.642Z,77.50
2018-04-11T00:53:02.939Z,77.50
2018-04-11T00:55:30.554Z,77.50
2018-04-11T00:57:58.119Z,77.20
2018-04-11T01:00:25.685Z,77.20
2018-04-11T01:02:53.259Z,77.50
2018-04-11T01:05:20.847Z,77.50
2018-04-11T01:07:48.420Z,77.80
2018-04-11T01:10:16.015Z,77.80
2018-04-11T01:12:44.336Z,78.10
2018-04-11T01:15:11.912Z,78.10
2018-04-11T01:17:39.497Z,78.50
2018-04-11T01:20:07.052Z,78.70
2018-04-11T01:22:34.600Z,79.10
2018-04-11T01:25:02.190Z,79.40
2018-04-11T01:27:29.737Z,79.50
2018-04-11T01:29:57.309Z,79.70
2018-04-11T01:32:24.891Z,79.70
2018-04-11T01:34:52.472Z,79.80
2018-04-11T01:37:20.790Z,79.40
2018-04-11T01:39:48.359Z,79.40
2018-04-11T01:42:15.934Z,79.40
2018-04-11T01:44:44.266Z,79.80
2018-04-11T01:47:12.579Z,80.20
2018-04-11T01:49:40.127Z,80.10
2018-04-11T01:52:07.674Z,80.70
2018-04-11T01:54:35.988Z,80.90
2018-04-11T01:57:03.546Z,80.90
2018-04-11T01:59:31.096Z,80.80
2018-04-11T02:01:58.667Z,81.10
2018-04-11T02:04:26.261Z,80.80
2018-04-11T02:06:53.835Z,81.20
2018-04-11T02:09:21.412Z,81.60
2018-04-11T02:11:49.067Z,81.80
2018-04-11T02:14:16.663Z,82.30
2018-04-11T02:16:44.209Z,82.90
2018-04-11T02:19:11.778Z,83.20
2018-04-11T02:21:39.352Z,83.10
2018-04-11T02:24:06.934Z,83.20
2018-04-11T02:26:35.256Z,84.10
2018-04-11T02:29:02.874Z,84.00
2018-04-11T02:31:31.226Z,84.00
2018-04-11T02:33:58.787Z,84.00
2018-04-11T02:36:26.356Z,83.90
2018-04-11T02:38:53.931Z,83.90
2018-04-11T02:41:21.503Z,83.60
2018-04-11T02:43:49.815Z,83.30
2018-04-11T02:46:17.369Z,83.30
2018-04-11T02:48:44.947Z,83.50
2018-04-11T02:51:12.520Z,83.60
2018-04-11T02:53:40.115Z,83.70
2018-04-11T02:56:07.672Z,83.90
2018-04-11T02:58:35.986Z,83.80
2018-04-11T03:01:03.551Z,83.80
2018-04-11T03:03:31.858Z,84.90
2018-04-11T03:05:59.453Z,84.30
2018-04-11T03:08:27.022Z,84.60
2018-04-11T03:10:54.584Z,85.00
2018-04-11T03:13:22.150Z,85.10
2018-04-11T03:15:49.719Z,85.20
2018-04-11T03:18:17.287Z,84.80
2018-04-11T03:20:44.859Z,84.90
2018-04-11T03:23:12.451Z,84.90
2018-04-11T03:25:40.754Z,85.20
2018-04-11T03:28:08.331Z,84.70
2018-04-11T03:30:35.915Z,84.70
2018-04-11T03:33:03.500Z,84.80
2018-04-11T03:35:31.051Z,85.10
2018-04-11T03:37:58.626Z,85.30
2018-04-11T03:40:26.235Z,85.50
2018-04-11T03:42:54.560Z,85.60
2018-04-11T03:45:22.145Z,85.60
2018-04-11T03:47:49.698Z,85.60
2018-04-11T03:50:18.036Z,85.60
2018-04-11T03:52:45.588Z,85.60
2018-04-11T03:55:13.904Z,86.00
2018-04-11T03:57:41.443Z,85.90
2018-04-11T04:00:09.046Z,86.00
2018-04-11T04:02:36.592Z,85.70
2018-04-11T04:05:04.172Z,85.90
2018-04-11T04:07:31.748Z,85.90
2018-04-11T04:09:59.329Z,86.90
2018-04-11T04:12:26.887Z,86.60
2018-04-11T04:15:06.127Z,86.60
2018-04-11T04:17:45.464Z,86.70
2018-04-11T04:20:34.664Z,86.60
2018-04-11T04:23:02.209Z,86.60
2018-04-11T04:25:29.848Z,86.50
2018-04-11T04:27:57.409Z,86.50
2018-04-11T04:30:24.983Z,86.80
2018-04-11T04:32:53.327Z,86.70
2018-04-11T04:35:20.875Z,87.40
2018-04-11T04:37:48.443Z,86.50
2018-04-11T04:40:16.033Z,86.30
2018-04-11T04:42:43.577Z,86.20
2018-04-11T04:45:11.155Z,86.90
2018-04-11T04:47:38.703Z,86.50
2018-04-11T04:50:06.291Z,86.50
2018-04-11T04:52:33.847Z,86.50
2018-04-11T04:55:01.387Z,86.30
2018-04-11T04:57:28.946Z,86.30
2018-04-11T04:59:56.538Z,87.10
2018-04-11T05:02:24.115Z,87.00
2018-04-11T05:04:51.693Z,86.60
2018-04-11T05:07:19.252Z,86.50
2018-04-11T05:09:46.832Z,86.50
2018-04-11T05:12:15.178Z,86.40
2018-04-11T05:14:42.761Z,86.40
2018-04-11T05:17:10.319Z,86.50
2018-04-11T05:19:37.980Z,86.30
2018-04-11T05:22:05.563Z,86.20
2018-04-11T05:24:33.163Z,86.40
2018-04-11T05:27:00.730Z,86.60
2018-04-11T05:29:28.312Z,86.70
2018-04-11T05:31:55.882Z,87.00
2018-04-11T05:34:23.456Z,87.00
2018-04-11T05:36:50.997Z,87.20
2018-04-11T05:39:18.572Z,87.20
2018-04-11T05:41:46.186Z,87.70
2018-04-11T05:44:14.517Z,86.80
2018-04-11T05:46:42.101Z,86.80
2018-04-11T05:49:09.651Z,87.50
2018-04-11T05:51:37.194Z,87.50
2018-04-11T05:54:04.743Z,87.30
2018-04-11T05:56:32.319Z,86.90
2018-04-11T05:58:59.871Z,85.50
2018-04-11T06:01:28.174Z,85.00
2018-04-11T06:03:55.722Z,85.00
2018-04-11T06:06:23.291Z,85.10
2018-04-11T06:08:50.856Z,86.10
2018-04-11T06:11:18.398Z,85.40
2018-04-11T06:13:46.739Z,85.50
2018-04-11T06:16:14.305Z,85.40
2018-04-11T06:18:41.867Z,85.20
2018-04-11T06:21:10.213Z,84.70
2018-04-11T06:23:37.779Z,84.70
2018-04-11T06:26:05.363Z,84.70
2018-04-11T06:28:32.919Z,82.50
2018-04-11T06:31:00.463Z,80.80
2018-04-11T06:33:28.016Z,78.50
2018-04-11T06:35:56.322Z,74.90
2018-04-11T06:38:23.889Z,74.80
2018-04-11T06:40:51.435Z,72.80
2018-04-11T06:43:18.998Z,72.80
2018-04-11T06:45:46.556Z,72.30
2018-04-11T06:48:14.870Z,74.00
2018-04-11T06:50:42.448Z,74.00
2018-04-11T06:53:10.005Z,73.60
2018-04-11T06:55:37.600Z,72.70
2018-04-11T06:58:05.149Z,73.10
2018-04-11T07:00:32.759Z,73.50
2018-04-11T07:03:00.347Z,74.20
2018-04-11T07:05:27.903Z,74.90
2018-04-11T07:07:55.480Z,75.60
2018-04-11T07:10:23.054Z,75.00
2018-04-11T07:12:50.613Z,74.80
2018-04-11T07:15:18.183Z,74.50
2018-04-11T07:17:45.799Z,75.20
2018-04-11T07:20:14.166Z,74.20
2018-04-11T07:22:41.720Z,74.20
2018-04-11T07:25:09.284Z,72.60
2018-04-11T07:27:36.390Z,71.20
2018-04-11T07:30:03.508Z,70.20
2018-04-11T07:32:30.621Z,69.20
2018-04-11T07:34:57.727Z,68.60
2018-04-11T07:37:25.594Z,69.60
2018-04-11T07:39:53.483Z,68.80
2018-04-11T07:42:20.620Z,69.40
2018-04-11T07:44:48.516Z,68.20
2018-04-11T07:47:15.610Z,68.20
2018-04-11T07:49:42.725Z,68.40
2018-04-11T07:52:09.833Z,68.00
2018-04-11T07:54:37.029Z,66.80
2018-04-11T07:57:04.136Z,66.60
2018-04-11T07:59:31.701Z,66.00
2018-04-11T08:01:58.847Z,65.10
2018-04-11T08:04:25.988Z,65.70
2018-04-11T08:06:53.098Z,64.90
2018-04-11T08:09:21.036Z,64.20
2018-04-11T08:11:48.139Z,64.00
2018-04-11T08:14:15.279Z,63.10
2018-04-11T08:16:43.184Z,60.50
2018-04-11T08:19:10.774Z,60.50
2018-04-11T08:21:38.350Z,59.40
2018-04-11T08:24:05.405Z,60.40
2018-04-11T08:26:32.967Z,60.10
2018-04-11T08:29:00.540Z,59.70
2018-04-11T08:31:28.104Z,60.40
2018-04-11T08:33:56.431Z,59.00
2018-04-11T08:36:23.973Z,58.80
2018-04-11T08:38:52.330Z,56.30
2018-04-11T08:41:19.882Z,56.30
2018-04-11T08:43:47.428Z,57.30
2018-04-11T08:46:15.005Z,58.00
2018-04-11T08:48:42.583Z,57.20
2018-04-11T08:51:10.130Z,57.60
2018-04-11T08:53:37.763Z,56.80
2018-04-11T08:56:04.871Z,56.50
2018-04-11T08:58:31.983Z,55.70
2018-04-11T09:00:59.102Z,56.70
2018-04-11T09:03:26.961Z,57.00
2018-04-11T09:05:54.854Z,56.00
2018-04-11T09:08:22.054Z,55.90
2018-04-11T09:10:49.183Z,56.50
2018-04-11T09:13:16.281Z,56.20
2018-04-11T09:15:43.411Z,55.10
2018-04-11T09:18:10.526Z,54.80
2018-04-11T09:20:37.640Z,53.30
2018-04-11T09:23:04.803Z,52.10
2018-04-11T09:25:31.897Z,51.90
2018-04-11T09:27:58.999Z,52.70
2018-04-11T09:30:26.114Z,53.20
2018-04-11T09:32:53.267Z,52.00
2018-04-11T09:35:20.377Z,51.60
2018-04-11T09:37:47.527Z,52.30
2018-04-11T09:40:14.630Z,52.00
2018-04-11T09:42:41.721Z,52.40
2018-04-11T09:45:08.864Z,52.40
2018-04-11T09:47:36.797Z,53.70
2018-04-11T09:50:03.923Z,53.70
2018-04-11T09:52:31.054Z,52.90
2018-04-11T09:54:58.161Z,51.80
2018-04-11T09:57:25.257Z,52.00
2018-04-11T09:59:52.350Z,50.70
2018-04-11T10:02:24.040Z,51.40
2018-04-11T10:04:51.272Z,51.40
2018-04-11T10:07:19.175Z,50.10
2018-04-11T10:09:46.275Z,50.10
2018-04-11T10:12:13.383Z,50.00
2018-04-11T10:14:40.960Z,48.40
2018-04-11T10:17:08.511Z,48.50
2018-04-11T10:19:36.060Z,49.00
2018-04-11T10:22:03.618Z,47.80
2018-04-11T10:24:31.255Z,48.20
2018-04-11T10:26:59.601Z,47.00
2018-04-11T10:29:27.164Z,47.10
2018-04-11T10:31:55.522Z,50.60
2018-04-11T10:34:23.083Z,50.60
2018-04-11T10:36:50.636Z,50.50
2018-04-11T10:39:18.189Z,50.90
2018-04-11T10:41:46.572Z,49.40
2018-04-11T10:44:14.891Z,50.60
2018-04-11T10:46:42.438Z,50.50
2018-04-11T10:49:10.018Z,53.10
2018-04-11T10:51:37.577Z,53.00
2018-04-11T10:54:05.148Z,52.40
2018-04-11T10:56:32.731Z,51.70
2018-04-11T10:59:00.273Z,52.40
2018-04-11T11:01:27.900Z,50.90
2018-04-11T11:03:56.243Z,50.40
2018-04-11T11:06:23.819Z,50.40
2018-04-11T11:08:51.405Z,51.30
2018-04-11T11:11:19.738Z,50.90
2018-04-11T11:13:47.368Z,50.90
2018-04-11T11:16:14.961Z,51.20
2018-04-11T11:18:42.515Z,51.80
2018-04-11T11:21:10.112Z,52.60
2018-04-11T11:23:37.725Z,53.20
2018-04-11T11:26:06.105Z,53.20
2018-04-11T11:28:33.703Z,53.30
2018-04-11T11:31:01.260Z,53.10
2018-04-11T11:33:28.857Z,52.30
2018-04-11T11:35:56.457Z,50.00
2018-04-11T11:38:24.774Z,51.10
2018-04-11T11:40:52.387Z,51.00
2018-04-11T11:43:19.944Z,49.80
2018-04-11T11:45:47.502Z,50.00
2018-04-11T11:48:15.129Z,48.30
2018-04-11T11:50:42.666Z,48.90
2018-04-11T11:53:11.061Z,48.50
2018-04-11T11:55:38.619Z,48.40
2018-04-11T11:58:06.947Z,50.40
2018-04-11T12:00:35.273Z,50.60
2018-04-11T12:03:03.612Z,48.60
2018-04-11T12:05:31.175Z,48.60
2018-04-11T12:07:58.723Z,47.20
2018-04-11T12:10:26.293Z,48.60
2018-04-11T12:12:53.938Z,49.70
2018-04-11T12:15:21.507Z,48.60
2018-04-11T12:17:49.083Z,50.20
2018-04-11T12:20:16.651Z,48.00
2018-04-11T12:22:44.198Z,46.90
2018-04-11T12:25:11.777Z,46.20
2018-04-11T12:27:39.372Z,45.30
2018-04-11T12:30:06.947Z,45.40
2018-04-11T12:32:34.578Z,46.60
2018-04-11T12:35:02.159Z,47.90
2018-04-11T12:37:29.754Z,47.00
2018-04-11T12:39:58.098Z,45.20
2018-04-11T12:42:25.666Z,45.20
2018-04-11T12:44:54.010Z,46.70
2018-04-11T12:47:21.590Z,46.80
2018-04-11T12:49:49.167Z,46.60
2018-04-11T12:52:16.753Z,47.10
2018-04-11T12:54:44.372Z,48.10
2018-04-11T12:57:12.006Z,47.80
2018-04-11T12:59:40.316Z,47.50
2018-04-11T13:02:07.936Z,47.50
2018-04-11T13:04:35.487Z,47.50
2018-04-11T13:07:03.081Z,45.80
2018-04-11T13:09:31.398Z,47.00
2018-04-11T13:11:58.967Z,47.00
2018-04-11T13:14:26.565Z,48.40
2018-04-11T13:16:54.127Z,49.80
2018-04-11T13:19:23.385Z,48.50
2018-04-11T13:21:50.934Z,49.20
2018-04-11T13:24:19.269Z,47.00
2018-04-11T13:26:46.841Z,47.10
2018-04-11T13:29:14.438Z,47.40
2018-04-11T13:31:42.756Z,47.30
2018-04-11T13:34:10.376Z,46.80
2018-04-11T13:36:37.931Z,46.10
2018-04-11T13:39:05.582Z,46.80
2018-04-11T13:41:33.924Z,47.80
2018-04-11T13:44:01.499Z,47.80
2018-04-11T13:46:29.060Z,48.30
2018-04-11T13:48:56.623Z,47.60
2018-04-11T13:51:24.175Z,48.60
2018-04-11T13:53:51.771Z,48.30
2018-04-11T13:56:19.423Z,48.60
2018-04-11T13:58:46.938Z,48.10
2018-04-11T14:01:14.527Z,48.70
2018-04-11T14:03:42.867Z,50.00
2018-04-11T14:06:11.914Z,51.80
2018-04-11T14:08:39.507Z,51.30
2018-04-11T14:11:07.069Z,51.30
2018-04-11T14:13:34.652Z,50.00
2018-04-11T14:16:02.197Z,50.70
2018-04-11T14:18:29.735Z,51.90
2018-04-11T14:20:57.274Z,52.00
2018-04-11T14:23:24.824Z,52.00
2018-04-11T14:25:52.419Z,52.30
2018-04-11T14:28:20.765Z,51.50
2018-04-11T14:30:48.389Z,51.50
2018-04-11T14:33:15.963Z,52.70
2018-04-11T14:35:43.526Z,52.60
2018-04-11T14:38:11.117Z,51.50
2018-04-11T14:40:38.683Z,51.70
2018-04-11T14:43:06.295Z,52.70
2018-04-11T14:45:33.887Z,52.40
2018-04-11T14:48:01.479Z,52.30
2018-04-11T14:50:29.028Z,51.70
2018-04-11T14:52:56.587Z,51.40
2018-04-11T14:55:24.136Z,51.00
2018-04-11T14:57:51.677Z,52.00
2018-04-11T15:00:19.295Z,51.70
2018-04-11T15:02:47.611Z,52.90
2018-04-11T15:05:15.925Z,53.00
2018-04-11T15:07:43.494Z,52.90
2018-04-11T15:10:11.044Z,53.00
2018-04-11T15:12:38.693Z,53.60
2018-04-11T15:15:07.021Z,52.70
2018-04-11T15:17:34.608Z,52.70
2018-04-11T15:20:02.181Z,52.50
2018-04-11T15:22:29.727Z,52.00
2018-04-11T15:24:57.286Z,50.90
2018-04-11T15:27:24.854Z,51.20
2018-04-11T15:29:52.395Z,51.10
2018-04-11T15:32:19.947Z,50.30
2018-04-11T15:34:47.523Z,51.30
2018-04-11T15:37:15.073Z,51.60
2018-04-11T15:39:42.633Z,51.60
2018-04-11T15:42:11.249Z,52.40
2018-04-11T15:44:38.791Z,52.10
2018-04-11T15:47:06.367Z,50.80
2018-04-11T15:49:33.920Z,52.00
2018-04-11T15:52:01.483Z,51.90
2018-04-11T15:54:29.040Z,52.10
2018-04-11T15:56:56.611Z,51.10
2018-04-11T15:59:24.194Z,50.50
2018-04-11T16:01:51.774Z,50.30
2018-04-11T16:04:19.400Z,51.40
2018-04-11T16:06:46.978Z,52.20
2018-04-11T16:09:14.542Z,52.00
2018-04-11T16:11:42.180Z,52.70
2018-04-11T16:14:10.521Z,53.80
2018-04-11T16:16:38.890Z,53.40
2018-04-11T16:19:06.441Z,53.20
2018-04-11T16:21:33.979Z,52.80
2018-04-11T16:24:01.549Z,52.90
2018-04-11T16:26:29.171Z,52.80
2018-04-11T16:28:56.859Z,53.00
2018-04-11T16:31:25.161Z,53.50
2018-04-11T16:33:52.746Z,53.50
2018-04-11T16:36:20.379Z,53.20
2018-04-11T16:38:48.718Z,53.30
2018-04-11T16:41:16.308Z,53.30
2018-04-11T16:43:44.642Z,54.10
2018-04-11T16:46:12.226Z,54.00
2018-04-11T16:48:39.791Z,54.70
2018-04-11T16:51:07.344Z,54.10
2018-04-11T16:53:34.948Z,54.00
2018-04-11T16:56:03.280Z,55.30
2018-04-11T16:58:30.819Z,54.60
2018-04-11T17:00:58.369Z,54.70
2018-04-11T17:03:26.735Z,54.60
2018-04-11T17:05:54.341Z,54.50
2018-04-11T17:08:21.912Z,55.00
2018-04-11T17:10:49.551Z,55.20
2018-04-11T17:13:17.868Z,55.80
2018-04-11T17:15:45.451Z,55.80
2018-04-11T17:18:13.983Z,56.00
2018-04-11T17:20:53.590Z,56.40
2018-04-11T17:23:32.892Z,56.50
2018-04-11T17:26:12.265Z,57.60
2018-04-11T17:28:51.608Z,57.10
2018-04-11T17:31:21.714Z,58.60
2018-04-11T17:33:49.267Z,57.90
2018-04-11T17:36:16.839Z,58.20
2018-04-11T17:38:44.415Z,58.30
2018-04-11T17:41:11.969Z,58.30
2018-04-11T17:43:39.553Z,58.60
2018-04-11T17:46:07.220Z,58.80
2018-04-11T17:48:35.571Z,59.80
2018-04-11T17:51:03.271Z,59.70
2018-04-11T17:53:31.626Z,60.60
2018-04-11T17:55:59.182Z,60.60
2018-04-11T17:58:26.788Z,60.80
2018-04-11T18:00:55.186Z,61.80
2018-04-11T18:03:22.792Z,61.70
2018-04-11T18:05:51.098Z,62.20
2018-04-11T18:08:18.669Z,62.20
2018-04-11T18:10:46.228Z,63.30
2018-04-11T18:13:13.814Z,64.20
2018-04-11T18:15:41.389Z,63.50
2018-04-11T18:18:08.965Z,63.40
2018-04-11T18:20:36.539Z,63.60
2018-04-11T18:23:04.101Z,63.50
2018-04-11T18:25:31.655Z,64.10
2018-04-11T18:27:59.287Z,64.60
2018-04-11T18:30:27.634Z,64.50
2018-04-11T18:32:56.235Z,65.20
2018-04-11T18:35:23.836Z,64.90
2018-04-11T18:37:52.194Z,65.30
2018-04-11T18:40:19.718Z,65.30
2018-04-11T18:42:47.343Z,66.10
2018-04-11T18:45:15.687Z,66.80
2018-04-11T18:47:43.257Z,66.80
2018-04-11T18:50:10.854Z,66.90
2018-04-11T18:52:39.194Z,67.70
2018-04-11T18:55:06.759Z,67.60
2018-04-11T18:57:34.353Z,67.90
2018-04-11T19:00:02.674Z,69.50
2018-04-11T19:02:30.249Z,68.70
2018-04-11T19:04:57.849Z,69.20
2018-04-11T19:07:25.471Z,69.50
2018-04-11T19:09:53.075Z,69.80
2018-04-11T19:12:20.641Z,70.10
2018-04-11T19:14:48.248Z,70.30
2018-04-11T19:17:15.822Z,70.60
2018-04-11T19:19:43.386Z,71.00
2018-04-11T19:22:10.963Z,71.00
2018-04-11T19:24:38.558Z,71.30
2018-04-11T19:27:06.201Z,71.90
2018-04-11T19:29:33.768Z,71.90
2018-04-11T19:32:01.491Z,72.10
2018-04-11T19:34:29.852Z,72.40
2018-04-11T19:36:57.430Z,72.40
2018-04-11T19:39:25.803Z,72.70
2018-04-11T19:41:53.492Z,72.70
2018-04-11T19:44:21.879Z,73.00
2018-04-11T19:46:49.484Z,73.00
2018-04-11T19:49:18.715Z,73.40
2018-04-11T19:51:46.318Z,73.40
2018-04-11T19:54:13.896Z,73.60
2018-04-11T19:56:41.476Z,74.00
2018-04-11T19:59:09.066Z,74.10
2018-04-11T20:01:36.664Z,74.20
2018-04-11T20:04:06.036Z,74.50
2018-04-11T20:06:33.599Z,74.50
2018-04-11T20:09:01.170Z,74.80
2018-04-11T20:11:28.731Z,75.10
2018-04-11T20:13:56.301Z,75.20
2018-04-11T20:16:24.678Z,76.20
2018-04-11T20:18:52.260Z,75.50
2018-04-11T20:21:20.637Z,75.80
2018-04-11T20:23:48.269Z,75.80
2018-04-11T20:26:15.823Z,75.90
2018-04-11T20:28:43.382Z,76.20
2018-04-11T20:31:10.934Z,76.20
2018-04-11T20:33:38.514Z,76.40
2018-04-11T20:36:06.129Z,76.70
2018-04-11T20:38:33.688Z,77.00
2018-04-11T20:41:01.272Z,78.00
2018-04-11T20:43:29.623Z,77.50
2018-04-11T20:45:57.183Z,77.50
2018-04-11T20:48:24.730Z,77.50
2018-04-11T20:50:52.318Z,77.40
2018-04-11T20:53:19.876Z,77.40
2018-04-11T20:55:47.454Z,77.10
2018-04-11T20:58:15.002Z,78.10
2018-04-11T21:00:43.327Z,79.00
2018-04-11T21:03:11.666Z,79.50
2018-04-11T21:05:39.233Z,79.50
2018-04-11T21:08:06.801Z,79.90
2018-04-11T21:10:34.366Z,80.50
2018-04-11T21:13:01.947Z,81.00
2018-04-11T21:15:30.279Z,81.60
2018-04-11T21:17:57.829Z,80.90
2018-04-11T21:20:25.453Z,81.10
2018-04-11T21:22:53.009Z,81.50
2018-04-11T21:25:20.596Z,81.20
2018-04-11T21:27:48.931Z,81.20
2018-04-11T21:30:16.515Z,81.20
2018-04-11T21:32:44.100Z,80.90
2018-04-11T21:35:12.465Z,82.20
2018-04-11T21:37:40.008Z,81.90
2018-04-11T21:40:07.565Z,82.10
2018-04-11T21:42:35.135Z,82.00
2018-04-11T21:45:02.701Z,82.10
2018-04-11T21:47:30.267Z,82.00
2018-04-11T21:49:57.823Z,82.00
2018-04-11T21:52:25.399Z,82.00
2018-04-11T21:54:52.963Z,81.90
2018-04-11T21:57:20.541Z,82.00
2018-04-11T21:59:48.103Z,81.80
2018-04-11T22:02:15.643Z,82.20
2018-04-11T22:04:43.200Z,82.50
2018-04-11T22:07:10.793Z,82.60
2018-04-11T22:09:38.349Z,82.70
2018-04-11T22:12:06.671Z,83.40
2018-04-11T22:14:35.020Z,83.30
2018-04-11T22:17:02.580Z,83.20
2018-04-11T22:19:30.136Z,83.40
2018-04-11T22:21:57.746Z,83.50
2018-04-11T22:24:26.069Z,83.60
2018-04-11T22:26:53.697Z,83.60
2018-04-11T22:29:22.046Z,84.00
2018-04-11T22:31:49.613Z,84.00
2018-04-11T22:34:17.171Z,84.20
2018-04-11T22:36:44.728Z,83.90
2018-04-11T22:39:12.328Z,84.20
2018-04-11T22:41:40.666Z,84.10
2018-04-11T22:44:08.244Z,84.10
2018-04-11T22:46:35.829Z,84.30
2018-04-11T22:49:03.398Z,84.70
2018-04-11T22:51:31.013Z,85.00
2018-04-11T22:53:58.629Z,85.00
2018-04-11T22:56:26.235Z,85.40
2018-04-11T22:58:53.797Z,85.90
2018-04-11T23:01:21.358Z,85.90
2018-04-11T23:03:48.939Z,86.00
2018-04-11T23:06:16.503Z,86.90
2018-04-11T23:08:44.056Z,86.60
2018-04-11T23:11:11.622Z,86.70
2018-04-11T23:13:39.235Z,86.40
2018-04-11T23:16:06.890Z,86.10
2018-04-11T23:18:34.530Z,85.20
2018-04-11T23:21:02.088Z,84.10
2018-04-11T23:23:29.675Z,83.60
2018-04-11T23:25:57.245Z,83.90
2018-04-11T23:28:24.840Z,84.50
2018-04-11T23:30:53.211Z,82.90
2018-04-11T23:33:20.767Z,82.90
2018-04-11T23:35:48.357Z,82.20
2018-04-11T23:38:16.731Z,83.10
2018-04-11T23:40:45.095Z,83.40
2018-04-11T23:43:12.665Z,83.40
2018-04-11T23:45:40.219Z,83.70
2018-04-11T23:48:07.785Z,83.80
2018-04-11T23:50:35.366Z,85.10
2018-04-11T23:53:02.969Z,84.80
2018-04-11T23:55:30.737Z,85.10
2018-04-11T23:57:58.329Z,85.40
